EAL704 KBOS-KCMH
Flight info
| Callsign | EAL704 |
|---|---|
| Flight time | 1h 51m |
| Altitude | 38000 |
| Route | LOGAN4 BLZZR BAF Q480 AIR ZZV |
| Aircraft | L101/H-DFHILWXY/S |
Departure
| Time | 2026-05-06 00:24 |
|---|---|
| Airport | Boston Logan International Airport (KBOS) |
Arrival
| Time | 2026-05-06 02:16 |
|---|---|
| Airport | John Glenn Columbus International Airport (KCMH) |
| Time | Latitude | Longitude | Altitude | Speed | Heading |
|---|---|---|---|---|---|
| 2026-05-05 23:46 | 42.36226 | -71.02432 | 30 ft | 0 kts | 274° |
| 2026-05-06 00:08 | 42.36226 | -71.02426 | 29 ft | 0 kts | 274° |
| 2026-05-06 00:09 | 42.36224 | -71.02388 | 28 ft | 3 kts | 274° |
| 2026-05-06 00:09 | 42.36224 | -71.02361 | 28 ft | 4 kts | 247° |
| 2026-05-06 00:09 | 42.36238 | -71.02344 | 29 ft | 1 kts | 184° |
| 2026-05-06 00:09 | 42.36218 | -71.02346 | 30 ft | 4 kts | 184° |
| 2026-05-06 00:10 | 42.36192 | -71.02348 | 30 ft | 2 kts | 184° |
| 2026-05-06 00:10 | 42.36190 | -71.02348 | 30 ft | 0 kts | 184° |
| 2026-05-06 00:15 | 42.36167 | -71.02351 | 29 ft | 6 kts | 184° |
| 2026-05-06 00:16 | 42.36106 | -71.02333 | 30 ft | 11 kts | 158° |
| 2026-05-06 00:16 | 42.36034 | -71.02260 | 30 ft | 15 kts | 119° |
| 2026-05-06 00:16 | 42.35972 | -71.02125 | 30 ft | 19 kts | 121° |
| 2026-05-06 00:16 | 42.35900 | -71.01960 | 30 ft | 20 kts | 120° |
| 2026-05-06 00:17 | 42.35847 | -71.01780 | 30 ft | 19 kts | 101° |
| 2026-05-06 00:17 | 42.35824 | -71.01623 | 30 ft | 13 kts | 92° |
| 2026-05-06 00:17 | 42.35889 | -71.01552 | 30 ft | 15 kts | 21° |
| 2026-05-06 00:17 | 42.36002 | -71.01495 | 29 ft | 20 kts | 20° |
| 2026-05-06 00:18 | 42.36148 | -71.01425 | 29 ft | 24 kts | 19° |
| 2026-05-06 00:18 | 42.36319 | -71.01342 | 30 ft | 28 kts | 20° |
| 2026-05-06 00:18 | 42.36473 | -71.01268 | 30 ft | 21 kts | 21° |
| 2026-05-06 00:18 | 42.36621 | -71.01196 | 30 ft | 25 kts | 19° |
| 2026-05-06 00:19 | 42.36776 | -71.01143 | 30 ft | 22 kts | 342° |
| 2026-05-06 00:19 | 42.36875 | -71.01227 | 30 ft | 13 kts | 9° |
| 2026-05-06 00:19 | 42.36962 | -71.01136 | 29 ft | 19 kts | 38° |
| 2026-05-06 00:19 | 42.37089 | -71.01045 | 30 ft | 23 kts | 25° |
| 2026-05-06 00:20 | 42.37192 | -71.00977 | 30 ft | 5 kts | 26° |
| 2026-05-06 00:20 | 42.37222 | -71.00958 | 30 ft | 4 kts | 25° |
| 2026-05-06 00:20 | 42.37263 | -71.00931 | 30 ft | 10 kts | 25° |
| 2026-05-06 00:20 | 42.37345 | -71.00885 | 30 ft | 16 kts | 20° |
| 2026-05-06 00:21 | 42.37471 | -71.00826 | 30 ft | 22 kts | 19° |
| 2026-05-06 00:21 | 42.37574 | -71.00776 | 30 ft | 25 kts | 20° |
| 2026-05-06 00:21 | 42.37722 | -71.00703 | 30 ft | 21 kts | 20° |
| 2026-05-06 00:21 | 42.37816 | -71.00654 | 30 ft | 9 kts | 32° |
| 2026-05-06 00:22 | 42.37835 | -71.00615 | 29 ft | 3 kts | 77° |
| 2026-05-06 00:22 | 42.37834 | -71.00585 | 30 ft | 0 kts | 102° |
| 2026-05-06 00:23 | 42.37830 | -71.00569 | 30 ft | 5 kts | 106° |
| 2026-05-06 00:23 | 42.37813 | -71.00501 | 29 ft | 10 kts | 109° |
| 2026-05-06 00:23 | 42.37790 | -71.00468 | 30 ft | 2 kts | 158° |
| 2026-05-06 00:23 | 42.37782 | -71.00466 | 30 ft | 3 kts | 172° |
| 2026-05-06 00:24 | 42.37734 | -71.00496 | 30 ft | 15 kts | 206° |
| 2026-05-06 00:24 | 42.37480 | -71.00621 | 32 ft | 82 kts | 199° |
| 2026-05-06 00:24 | 42.36645 | -71.01026 | 111 ft | 165 kts | 199° |
| 2026-05-06 00:24 | 42.35480 | -71.01607 | 995 ft | 187 kts | 200° |
| 2026-05-06 00:25 | 42.34157 | -71.02052 | 2012 ft | 215 kts | 191° |
| 2026-05-06 00:25 | 42.32638 | -71.01538 | 2982 ft | 236 kts | 163° |
| 2026-05-06 00:25 | 42.31355 | -71.00009 | 3847 ft | 260 kts | 140° |
| 2026-05-06 00:25 | 42.30275 | -70.97902 | 4512 ft | 286 kts | 130° |
| 2026-05-06 00:26 | 42.29195 | -70.95517 | 5570 ft | 303 kts | 128° |
| 2026-05-06 00:26 | 42.28138 | -70.93099 | 7201 ft | 296 kts | 127° |
| 2026-05-06 00:26 | 42.27112 | -70.90729 | 8862 ft | 287 kts | 127° |
| 2026-05-06 00:26 | 42.26183 | -70.88554 | 10057 ft | 252 kts | 126° |
| 2026-05-06 00:27 | 42.25339 | -70.86542 | 10387 ft | 244 kts | 126° |
| 2026-05-06 00:27 | 42.24509 | -70.84545 | 10865 ft | 243 kts | 126° |
| 2026-05-06 00:27 | 42.23679 | -70.82543 | 11475 ft | 247 kts | 126° |
| 2026-05-06 00:27 | 42.22832 | -70.80507 | 12074 ft | 251 kts | 126° |
| 2026-05-06 00:28 | 42.21964 | -70.78459 | 12659 ft | 250 kts | 133° |
| 2026-05-06 00:28 | 42.20697 | -70.76838 | 12882 ft | 263 kts | 160° |
| 2026-05-06 00:28 | 42.18898 | -70.76143 | 13257 ft | 279 kts | 183° |
| 2026-05-06 00:28 | 42.16916 | -70.76453 | 13695 ft | 297 kts | 203° |
| 2026-05-06 00:29 | 42.15085 | -70.77930 | 13922 ft | 321 kts | 226° |
| 2026-05-06 00:29 | 42.13749 | -70.80613 | 14056 ft | 350 kts | 248° |
| 2026-05-06 00:29 | 42.13197 | -70.83941 | 14197 ft | 379 kts | 264° |
| 2026-05-06 00:29 | 42.13239 | -70.87539 | 14966 ft | 388 kts | 273° |
| 2026-05-06 00:30 | 42.13570 | -70.91098 | 16486 ft | 376 kts | 276° |
| 2026-05-06 00:30 | 42.13971 | -70.94559 | 17886 ft | 374 kts | 276° |
| 2026-05-06 00:30 | 42.14377 | -70.98127 | 18573 ft | 389 kts | 276° |
| 2026-05-06 00:30 | 42.14772 | -71.01832 | 19001 ft | 407 kts | 276° |
| 2026-05-06 00:31 | 42.15157 | -71.05615 | 20128 ft | 405 kts | 276° |
| 2026-05-06 00:31 | 42.15531 | -71.09336 | 21586 ft | 398 kts | 276° |
| 2026-05-06 00:31 | 42.15903 | -71.13065 | 22488 ft | 408 kts | 276° |
| 2026-05-06 00:31 | 42.16284 | -71.16932 | 23117 ft | 420 kts | 276° |
| 2026-05-06 00:32 | 42.16667 | -71.20828 | 24227 ft | 418 kts | 276° |
| 2026-05-06 00:32 | 42.17051 | -71.24747 | 24897 ft | 427 kts | 276° |
| 2026-05-06 00:32 | 42.17441 | -71.28740 | 25644 ft | 432 kts | 277° |
| 2026-05-06 00:32 | 42.17833 | -71.32779 | 26356 ft | 437 kts | 277° |
| 2026-05-06 00:33 | 42.18240 | -71.37005 | 27090 ft | 443 kts | 277° |
| 2026-05-06 00:33 | 42.18629 | -71.41067 | 27768 ft | 448 kts | 277° |
| 2026-05-06 00:33 | 42.19027 | -71.45262 | 28408 ft | 453 kts | 277° |
| 2026-05-06 00:33 | 42.19421 | -71.49451 | 29069 ft | 457 kts | 277° |
| 2026-05-06 00:34 | 42.19815 | -71.53697 | 29988 ft | 456 kts | 277° |
| 2026-05-06 00:34 | 42.20203 | -71.57922 | 30943 ft | 450 kts | 278° |
| 2026-05-06 00:34 | 42.20581 | -71.62118 | 32045 ft | 442 kts | 278° |
| 2026-05-06 00:34 | 42.20942 | -71.66205 | 33035 ft | 436 kts | 278° |
| 2026-05-06 00:35 | 42.21290 | -71.70235 | 33993 ft | 430 kts | 278° |
| 2026-05-06 00:35 | 42.21557 | -71.74240 | 34676 ft | 430 kts | 273° |
| 2026-05-06 00:35 | 42.21489 | -71.78279 | 35317 ft | 430 kts | 268° |
| 2026-05-06 00:35 | 42.21251 | -71.82292 | 35983 ft | 429 kts | 266° |
| 2026-05-06 00:36 | 42.21035 | -71.86298 | 36666 ft | 428 kts | 267° |
| 2026-05-06 00:36 | 42.20864 | -71.90293 | 37395 ft | 426 kts | 267° |
| 2026-05-06 00:36 | 42.20695 | -71.94294 | 37866 ft | 431 kts | 266° |
| 2026-05-06 00:36 | 42.20501 | -71.98335 | 37980 ft | 433 kts | 266° |
| 2026-05-06 00:37 | 42.20288 | -72.02381 | 37996 ft | 431 kts | 266° |
| 2026-05-06 00:37 | 42.19847 | -72.10430 | 37999 ft | 430 kts | 266° |
| 2026-05-06 00:38 | 42.19404 | -72.18482 | 37991 ft | 430 kts | 266° |
| 2026-05-06 00:38 | 42.18953 | -72.26581 | 37966 ft | 430 kts | 266° |
| 2026-05-06 00:39 | 42.18495 | -72.34623 | 37973 ft | 431 kts | 265° |
| 2026-05-06 00:39 | 42.18028 | -72.42675 | 37960 ft | 431 kts | 265° |
| 2026-05-06 00:40 | 42.17559 | -72.50733 | 37970 ft | 431 kts | 265° |
| 2026-05-06 00:40 | 42.17085 | -72.58787 | 37969 ft | 431 kts | 265° |
| 2026-05-06 00:41 | 42.16547 | -72.66822 | 37951 ft | 430 kts | 260° |
| 2026-05-06 00:41 | 42.15635 | -72.70657 | 37923 ft | 430 kts | 245° |
| 2026-05-06 00:41 | 42.14166 | -72.74163 | 37998 ft | 430 kts | 242° |
| 2026-05-06 00:42 | 42.11373 | -72.81326 | 37969 ft | 433 kts | 246° |
| 2026-05-06 00:42 | 42.10024 | -72.84961 | 37857 ft | 436 kts | 245° |
| 2026-05-06 00:42 | 42.08582 | -72.88555 | 37788 ft | 435 kts | 243° |
| 2026-05-06 00:43 | 42.05536 | -72.95594 | 37847 ft | 436 kts | 242° |
| 2026-05-06 00:43 | 42.02440 | -73.02623 | 37851 ft | 438 kts | 243° |
| 2026-05-06 00:44 | 41.99325 | -73.09668 | 37854 ft | 438 kts | 243° |
| 2026-05-06 00:44 | 41.96193 | -73.16696 | 37856 ft | 438 kts | 243° |
| 2026-05-06 00:45 | 41.93043 | -73.23723 | 37860 ft | 439 kts | 243° |
| 2026-05-06 00:45 | 41.89891 | -73.30744 | 37862 ft | 439 kts | 243° |
| 2026-05-06 00:46 | 41.86718 | -73.37759 | 37842 ft | 440 kts | 243° |
| 2026-05-06 00:46 | 41.83533 | -73.44764 | 37838 ft | 440 kts | 243° |
| 2026-05-06 00:47 | 41.80364 | -73.51781 | 37814 ft | 440 kts | 243° |
| 2026-05-06 00:47 | 41.77200 | -73.58801 | 37819 ft | 440 kts | 243° |
| 2026-05-06 00:48 | 41.73993 | -73.65855 | 37822 ft | 441 kts | 243° |
| 2026-05-06 00:48 | 41.71348 | -73.71679 | 37814 ft | 439 kts | 243° |
| 2026-05-06 00:49 | 41.68175 | -73.78657 | 37814 ft | 439 kts | 242° |
| 2026-05-06 00:49 | 41.64408 | -73.85159 | 37821 ft | 445 kts | 234° |
| 2026-05-06 00:50 | 41.60365 | -73.91423 | 37815 ft | 444 kts | 235° |
| 2026-05-06 00:50 | 41.56383 | -73.97740 | 37813 ft | 445 kts | 235° |
| 2026-05-06 00:51 | 41.52346 | -74.04003 | 37814 ft | 445 kts | 235° |
| 2026-05-06 00:51 | 41.48313 | -74.10208 | 37803 ft | 441 kts | 235° |
| 2026-05-06 00:52 | 41.44281 | -74.16410 | 37808 ft | 442 kts | 235° |
| 2026-05-06 00:52 | 41.40233 | -74.22596 | 37825 ft | 443 kts | 235° |
| 2026-05-06 00:53 | 41.36189 | -74.28775 | 37837 ft | 443 kts | 235° |
| 2026-05-06 00:53 | 41.32136 | -74.34950 | 37811 ft | 443 kts | 234° |
| 2026-05-06 00:54 | 41.28074 | -74.41128 | 37842 ft | 444 kts | 235° |
| 2026-05-06 00:54 | 41.24137 | -74.47403 | 37851 ft | 440 kts | 239° |
| 2026-05-06 00:55 | 41.20532 | -74.53949 | 37850 ft | 438 kts | 240° |
| 2026-05-06 00:55 | 41.16901 | -74.60467 | 37853 ft | 439 kts | 240° |
| 2026-05-06 00:56 | 41.13284 | -74.67002 | 37842 ft | 440 kts | 240° |
| 2026-05-06 00:56 | 41.09667 | -74.73577 | 37852 ft | 442 kts | 240° |
| 2026-05-06 00:57 | 41.06036 | -74.80154 | 37855 ft | 442 kts | 240° |
| 2026-05-06 00:57 | 41.02401 | -74.86726 | 37847 ft | 442 kts | 240° |
| 2026-05-06 00:58 | 40.98763 | -74.93291 | 37822 ft | 442 kts | 240° |
| 2026-05-06 00:58 | 40.95316 | -75.00058 | 37844 ft | 440 kts | 243° |
| 2026-05-06 00:59 | 40.91994 | -75.06868 | 37854 ft | 441 kts | 243° |
| 2026-05-06 00:59 | 40.88664 | -75.13643 | 37849 ft | 438 kts | 243° |
| 2026-05-06 01:00 | 40.85362 | -75.20398 | 37851 ft | 437 kts | 243° |
| 2026-05-06 01:00 | 40.82073 | -75.27142 | 37808 ft | 437 kts | 243° |
| 2026-05-06 01:01 | 40.78779 | -75.33875 | 37843 ft | 437 kts | 243° |
| 2026-05-06 01:01 | 40.75770 | -75.40776 | 37862 ft | 432 kts | 249° |
| 2026-05-06 01:02 | 40.73116 | -75.47872 | 37854 ft | 431 kts | 249° |
| 2026-05-06 01:02 | 40.70448 | -75.54916 | 37855 ft | 429 kts | 249° |
| 2026-05-06 01:03 | 40.67790 | -75.61955 | 37852 ft | 429 kts | 249° |
| 2026-05-06 01:03 | 40.65151 | -75.68983 | 37848 ft | 428 kts | 250° |
| 2026-05-06 01:04 | 40.62508 | -75.76034 | 37855 ft | 429 kts | 250° |
| 2026-05-06 01:04 | 40.59859 | -75.83077 | 37849 ft | 429 kts | 250° |
| 2026-05-06 01:05 | 40.57184 | -75.90085 | 37848 ft | 428 kts | 249° |
| 2026-05-06 01:05 | 40.54502 | -75.97088 | 37853 ft | 428 kts | 249° |
| 2026-05-06 01:06 | 40.51835 | -76.04085 | 37848 ft | 428 kts | 249° |
| 2026-05-06 01:06 | 40.49166 | -76.11077 | 37839 ft | 428 kts | 249° |
| 2026-05-06 01:07 | 40.46491 | -76.18075 | 37845 ft | 429 kts | 250° |
| 2026-05-06 01:07 | 40.43813 | -76.25059 | 37845 ft | 428 kts | 250° |
| 2026-05-06 01:08 | 40.41135 | -76.32027 | 37832 ft | 427 kts | 250° |
| 2026-05-06 01:08 | 40.38458 | -76.38984 | 37824 ft | 427 kts | 250° |
| 2026-05-06 01:09 | 40.35772 | -76.45942 | 37828 ft | 427 kts | 250° |
| 2026-05-06 01:09 | 40.33047 | -76.52873 | 37819 ft | 428 kts | 249° |
| 2026-05-06 01:10 | 40.30231 | -76.59802 | 37823 ft | 428 kts | 249° |
| 2026-05-06 01:10 | 40.27453 | -76.66686 | 37843 ft | 427 kts | 249° |
| 2026-05-06 01:11 | 40.24688 | -76.73576 | 37846 ft | 427 kts | 249° |
| 2026-05-06 01:11 | 40.21923 | -76.80452 | 37845 ft | 427 kts | 249° |
| 2026-05-06 01:12 | 40.19148 | -76.87331 | 37853 ft | 427 kts | 249° |
| 2026-05-06 01:12 | 40.16375 | -76.94192 | 37801 ft | 426 kts | 250° |
| 2026-05-06 01:13 | 40.13603 | -77.01052 | 37835 ft | 428 kts | 250° |
| 2026-05-06 01:13 | 40.10817 | -77.07920 | 37843 ft | 428 kts | 249° |
| 2026-05-06 01:14 | 40.06619 | -77.18241 | 37842 ft | 429 kts | 249° |
| 2026-05-06 01:14 | 40.03812 | -77.25109 | 37858 ft | 428 kts | 250° |
| 2026-05-06 01:15 | 40.01015 | -77.31937 | 37845 ft | 426 kts | 250° |
| 2026-05-06 01:15 | 39.98231 | -77.38738 | 37844 ft | 425 kts | 250° |
| 2026-05-06 01:16 | 39.97079 | -77.42235 | 37807 ft | 413 kts | 263° |
| 2026-05-06 01:16 | 39.96755 | -77.45859 | 37836 ft | 397 kts | 275° |
| 2026-05-06 01:16 | 39.96708 | -77.53099 | 37874 ft | 404 kts | 271° |
| 2026-05-06 01:17 | 39.96372 | -77.60399 | 37869 ft | 402 kts | 274° |
| 2026-05-06 01:17 | 39.96453 | -77.67638 | 37852 ft | 397 kts | 276° |
| 2026-05-06 01:18 | 39.96660 | -77.74828 | 37859 ft | 396 kts | 277° |
| 2026-05-06 01:18 | 39.96874 | -77.81994 | 37849 ft | 396 kts | 277° |
| 2026-05-06 01:19 | 39.97111 | -77.89161 | 37852 ft | 395 kts | 277° |
| 2026-05-06 01:19 | 39.97345 | -77.96316 | 37847 ft | 395 kts | 277° |
| 2026-05-06 01:20 | 39.97531 | -78.03471 | 37844 ft | 394 kts | 276° |
| 2026-05-06 01:20 | 39.97684 | -78.10612 | 37845 ft | 394 kts | 276° |
| 2026-05-06 01:21 | 39.97870 | -78.17743 | 37852 ft | 394 kts | 277° |
| 2026-05-06 01:21 | 39.98058 | -78.24885 | 37849 ft | 394 kts | 276° |
| 2026-05-06 01:22 | 39.98243 | -78.32020 | 37850 ft | 394 kts | 276° |
| 2026-05-06 01:22 | 39.98426 | -78.39152 | 37848 ft | 394 kts | 276° |
| 2026-05-06 01:23 | 39.98581 | -78.45427 | 37854 ft | 394 kts | 276° |
| 2026-05-06 01:23 | 39.98753 | -78.52557 | 37854 ft | 394 kts | 276° |
| 2026-05-06 01:24 | 39.98922 | -78.59694 | 37857 ft | 394 kts | 276° |
| 2026-05-06 01:24 | 39.99088 | -78.66831 | 37855 ft | 394 kts | 276° |
| 2026-05-06 01:25 | 39.99250 | -78.73960 | 37866 ft | 393 kts | 276° |
| 2026-05-06 01:25 | 39.99402 | -78.81083 | 37861 ft | 392 kts | 276° |
| 2026-05-06 01:26 | 39.99554 | -78.88204 | 37866 ft | 393 kts | 276° |
| 2026-05-06 01:26 | 39.99702 | -78.95324 | 37869 ft | 393 kts | 276° |
| 2026-05-06 01:27 | 39.99844 | -79.02444 | 37878 ft | 392 kts | 276° |
| 2026-05-06 01:27 | 39.99983 | -79.09560 | 37870 ft | 392 kts | 276° |
| 2026-05-06 01:28 | 40.00116 | -79.16658 | 37879 ft | 391 kts | 276° |
| 2026-05-06 01:28 | 40.00244 | -79.23744 | 37877 ft | 391 kts | 276° |
| 2026-05-06 01:29 | 40.00369 | -79.30842 | 37869 ft | 391 kts | 276° |
| 2026-05-06 01:29 | 40.00489 | -79.37938 | 37876 ft | 391 kts | 276° |
| 2026-05-06 01:30 | 40.00602 | -79.45030 | 37885 ft | 391 kts | 275° |
| 2026-05-06 01:30 | 40.00636 | -79.52123 | 37887 ft | 390 kts | 275° |
| 2026-05-06 01:31 | 40.00701 | -79.59204 | 37878 ft | 390 kts | 275° |
| 2026-05-06 01:31 | 40.00800 | -79.66276 | 37878 ft | 390 kts | 275° |
| 2026-05-06 01:32 | 40.00893 | -79.73325 | 37547 ft | 394 kts | 275° |
| 2026-05-06 01:32 | 40.00938 | -79.76861 | 37049 ft | 386 kts | 275° |
| 2026-05-06 01:32 | 40.00980 | -79.80325 | 36559 ft | 379 kts | 275° |
| 2026-05-06 01:33 | 40.01022 | -79.83790 | 36098 ft | 376 kts | 275° |
| 2026-05-06 01:33 | 40.01065 | -79.87198 | 35655 ft | 376 kts | 275° |
| 2026-05-06 01:33 | 40.01109 | -79.90607 | 35221 ft | 377 kts | 275° |
| 2026-05-06 01:33 | 40.01154 | -79.94029 | 34781 ft | 378 kts | 275° |
| 2026-05-06 01:34 | 40.01197 | -79.97466 | 34359 ft | 380 kts | 275° |
| 2026-05-06 01:34 | 40.01237 | -80.00870 | 33934 ft | 381 kts | 275° |
| 2026-05-06 01:34 | 40.01276 | -80.04383 | 33453 ft | 383 kts | 275° |
| 2026-05-06 01:34 | 40.01316 | -80.07823 | 32970 ft | 386 kts | 274° |
| 2026-05-06 01:35 | 40.01357 | -80.11381 | 32479 ft | 389 kts | 274° |
| 2026-05-06 01:35 | 40.01392 | -80.14929 | 31997 ft | 394 kts | 273° |
| 2026-05-06 01:35 | 40.01428 | -80.18522 | 31524 ft | 398 kts | 273° |
| 2026-05-06 01:35 | 40.01467 | -80.22147 | 31045 ft | 402 kts | 272° |
| 2026-05-06 01:36 | 40.01516 | -80.25806 | 30582 ft | 406 kts | 272° |
| 2026-05-06 01:36 | 40.01553 | -80.29504 | 30117 ft | 410 kts | 271° |
| 2026-05-06 01:36 | 40.01578 | -80.33242 | 29594 ft | 415 kts | 271° |
| 2026-05-06 01:36 | 40.01600 | -80.37027 | 29037 ft | 419 kts | 271° |
| 2026-05-06 01:37 | 40.01625 | -80.40838 | 28497 ft | 422 kts | 271° |
| 2026-05-06 01:37 | 40.01653 | -80.44642 | 27956 ft | 413 kts | 271° |
| 2026-05-06 01:37 | 40.01680 | -80.48348 | 27441 ft | 405 kts | 270° |
| 2026-05-06 01:37 | 40.01704 | -80.52004 | 26950 ft | 402 kts | 270° |
| 2026-05-06 01:38 | 40.01727 | -80.55631 | 26478 ft | 399 kts | 270° |
| 2026-05-06 01:38 | 40.01749 | -80.59235 | 26011 ft | 395 kts | 270° |
| 2026-05-06 01:38 | 40.01769 | -80.62801 | 25554 ft | 393 kts | 270° |
| 2026-05-06 01:38 | 40.01789 | -80.66355 | 25106 ft | 391 kts | 270° |
| 2026-05-06 01:39 | 40.01807 | -80.69892 | 24664 ft | 389 kts | 270° |
| 2026-05-06 01:39 | 40.01825 | -80.73413 | 24242 ft | 387 kts | 270° |
| 2026-05-06 01:39 | 40.01842 | -80.76920 | 23812 ft | 385 kts | 269° |
| 2026-05-06 01:39 | 40.01822 | -80.80406 | 23396 ft | 383 kts | 267° |
| 2026-05-06 01:40 | 40.01655 | -80.83867 | 22922 ft | 381 kts | 264° |
| 2026-05-06 01:40 | 40.01399 | -80.87302 | 22423 ft | 379 kts | 264° |
| 2026-05-06 01:40 | 40.01139 | -80.90706 | 21946 ft | 376 kts | 264° |
| 2026-05-06 01:40 | 40.00909 | -80.94088 | 21502 ft | 373 kts | 264° |
| 2026-05-06 01:41 | 40.00698 | -80.97439 | 21052 ft | 369 kts | 264° |
| 2026-05-06 01:41 | 40.00488 | -81.00762 | 20610 ft | 366 kts | 264° |
| 2026-05-06 01:41 | 40.00274 | -81.04055 | 20187 ft | 363 kts | 264° |
| 2026-05-06 01:41 | 40.00057 | -81.07321 | 19768 ft | 360 kts | 264° |
| 2026-05-06 01:42 | 39.99839 | -81.10566 | 19360 ft | 357 kts | 264° |
| 2026-05-06 01:42 | 39.99667 | -81.13131 | 19040 ft | 355 kts | 264° |
| 2026-05-06 01:42 | 39.99453 | -81.16328 | 18647 ft | 353 kts | 264° |
| 2026-05-06 01:42 | 39.99239 | -81.19512 | 18260 ft | 351 kts | 264° |
| 2026-05-06 01:43 | 39.99025 | -81.22670 | 17830 ft | 348 kts | 264° |
| 2026-05-06 01:43 | 39.98812 | -81.25806 | 17391 ft | 346 kts | 264° |
| 2026-05-06 01:43 | 39.98601 | -81.28918 | 16974 ft | 343 kts | 264° |
| 2026-05-06 01:43 | 39.98389 | -81.32013 | 16557 ft | 343 kts | 264° |
| 2026-05-06 01:44 | 39.98117 | -81.35088 | 16240 ft | 339 kts | 260° |
| 2026-05-06 01:44 | 39.97613 | -81.38099 | 15839 ft | 340 kts | 256° |
| 2026-05-06 01:44 | 39.96973 | -81.41059 | 15428 ft | 338 kts | 253° |
| 2026-05-06 01:44 | 39.96274 | -81.43981 | 15036 ft | 337 kts | 252° |
| 2026-05-06 01:45 | 39.95550 | -81.46878 | 14659 ft | 335 kts | 252° |
| 2026-05-06 01:45 | 39.94819 | -81.49756 | 14273 ft | 334 kts | 252° |
| 2026-05-06 01:45 | 39.94085 | -81.52627 | 13886 ft | 333 kts | 252° |
| 2026-05-06 01:45 | 39.93353 | -81.55481 | 13503 ft | 332 kts | 252° |
| 2026-05-06 01:46 | 39.92625 | -81.58327 | 13110 ft | 330 kts | 252° |
| 2026-05-06 01:46 | 39.91910 | -81.61155 | 12697 ft | 328 kts | 252° |
| 2026-05-06 01:46 | 39.91206 | -81.63971 | 12304 ft | 326 kts | 252° |
| 2026-05-06 01:46 | 39.90516 | -81.66770 | 11918 ft | 324 kts | 252° |
| 2026-05-06 01:47 | 39.89825 | -81.69582 | 11529 ft | 320 kts | 252° |
| 2026-05-06 01:47 | 39.89148 | -81.72339 | 11149 ft | 318 kts | 252° |
| 2026-05-06 01:47 | 39.88480 | -81.75082 | 10776 ft | 317 kts | 252° |
| 2026-05-06 01:47 | 39.87832 | -81.77773 | 10426 ft | 315 kts | 252° |
| 2026-05-06 01:48 | 39.87185 | -81.80489 | 10080 ft | 313 kts | 252° |
| 2026-05-06 01:48 | 39.86542 | -81.83228 | 9707 ft | 303 kts | 252° |
| 2026-05-06 01:48 | 39.85953 | -81.85778 | 9335 ft | 282 kts | 252° |
| 2026-05-06 01:48 | 39.85433 | -81.88148 | 9007 ft | 263 kts | 255° |
| 2026-05-06 01:49 | 39.85256 | -81.90460 | 8684 ft | 251 kts | 265° |
| 2026-05-06 01:49 | 39.85338 | -81.92719 | 8400 ft | 251 kts | 270° |
| 2026-05-06 01:49 | 39.85518 | -81.94968 | 8109 ft | 254 kts | 271° |
| 2026-05-06 01:49 | 39.85742 | -81.97250 | 7802 ft | 254 kts | 272° |
| 2026-05-06 01:50 | 39.85991 | -81.99551 | 7480 ft | 252 kts | 272° |
| 2026-05-06 01:50 | 39.86251 | -82.01802 | 7205 ft | 252 kts | 272° |
| 2026-05-06 01:50 | 39.86526 | -82.04059 | 6909 ft | 252 kts | 272° |
| 2026-05-06 01:50 | 39.86812 | -82.06306 | 6613 ft | 251 kts | 272° |
| 2026-05-06 01:51 | 39.87113 | -82.08532 | 6330 ft | 248 kts | 272° |
| 2026-05-06 01:51 | 39.87410 | -82.10738 | 6132 ft | 247 kts | 272° |
| 2026-05-06 01:51 | 39.87704 | -82.12943 | 6043 ft | 247 kts | 272° |
| 2026-05-06 01:51 | 39.87998 | -82.15154 | 6030 ft | 249 kts | 272° |
| 2026-05-06 01:52 | 39.88303 | -82.17377 | 6013 ft | 249 kts | 272° |
| 2026-05-06 01:52 | 39.88607 | -82.19592 | 5999 ft | 248 kts | 272° |
| 2026-05-06 01:52 | 39.88910 | -82.21805 | 5998 ft | 248 kts | 272° |
| 2026-05-06 01:52 | 39.89210 | -82.24022 | 5999 ft | 249 kts | 272° |
| 2026-05-06 01:53 | 39.89507 | -82.26241 | 5999 ft | 249 kts | 272° |
| 2026-05-06 01:53 | 39.89804 | -82.28466 | 6001 ft | 249 kts | 272° |
| 2026-05-06 01:53 | 39.90111 | -82.30683 | 6001 ft | 248 kts | 273° |
| 2026-05-06 01:53 | 39.90416 | -82.32896 | 6004 ft | 248 kts | 272° |
| 2026-05-06 01:54 | 39.90718 | -82.35112 | 6004 ft | 249 kts | 272° |
| 2026-05-06 01:54 | 39.91021 | -82.37333 | 6007 ft | 249 kts | 272° |
| 2026-05-06 01:54 | 39.91333 | -82.39553 | 6013 ft | 248 kts | 272° |
| 2026-05-06 01:54 | 39.91648 | -82.41763 | 6012 ft | 248 kts | 272° |
| 2026-05-06 01:55 | 39.91972 | -82.43966 | 6009 ft | 247 kts | 272° |
| 2026-05-06 01:55 | 39.92297 | -82.46168 | 6009 ft | 247 kts | 272° |
| 2026-05-06 01:55 | 39.92621 | -82.48367 | 6008 ft | 247 kts | 272° |
| 2026-05-06 01:55 | 39.92945 | -82.50573 | 6000 ft | 247 kts | 272° |
| 2026-05-06 01:56 | 39.93266 | -82.52752 | 6000 ft | 247 kts | 272° |
| 2026-05-06 01:56 | 39.93591 | -82.54951 | 6003 ft | 247 kts | 272° |
| 2026-05-06 01:56 | 39.93857 | -82.57178 | 5997 ft | 243 kts | 266° |
| 2026-05-06 01:56 | 39.93865 | -82.59358 | 6005 ft | 239 kts | 261° |
| 2026-05-06 01:57 | 39.93760 | -82.61510 | 6002 ft | 237 kts | 258° |
| 2026-05-06 01:57 | 39.93616 | -82.63654 | 6003 ft | 237 kts | 258° |
| 2026-05-06 01:57 | 39.93457 | -82.65789 | 6001 ft | 237 kts | 258° |
| 2026-05-06 01:57 | 39.93289 | -82.67930 | 6003 ft | 238 kts | 258° |
| 2026-05-06 01:58 | 39.93118 | -82.70080 | 6003 ft | 238 kts | 258° |
| 2026-05-06 01:58 | 39.92947 | -82.72227 | 6004 ft | 238 kts | 258° |
| 2026-05-06 01:58 | 39.92776 | -82.74372 | 6007 ft | 238 kts | 257° |
| 2026-05-06 01:58 | 39.92609 | -82.76520 | 6007 ft | 238 kts | 258° |
| 2026-05-06 01:59 | 39.92446 | -82.78658 | 6019 ft | 237 kts | 258° |
| 2026-05-06 01:59 | 39.92275 | -82.80801 | 6017 ft | 238 kts | 258° |
| 2026-05-06 01:59 | 39.92157 | -82.82225 | 6015 ft | 239 kts | 258° |
| 2026-05-06 01:59 | 39.91915 | -82.85112 | 6008 ft | 240 kts | 258° |
| 2026-05-06 02:00 | 39.91740 | -82.87266 | 6005 ft | 239 kts | 258° |
| 2026-05-06 02:00 | 39.91570 | -82.89419 | 6005 ft | 239 kts | 258° |
| 2026-05-06 02:00 | 39.91401 | -82.91565 | 6006 ft | 238 kts | 258° |
| 2026-05-06 02:00 | 39.91228 | -82.93709 | 6005 ft | 238 kts | 258° |
| 2026-05-06 02:01 | 39.91059 | -82.95855 | 6008 ft | 239 kts | 258° |
| 2026-05-06 02:01 | 39.90882 | -82.98035 | 6010 ft | 239 kts | 258° |
| 2026-05-06 02:01 | 39.90703 | -83.00190 | 6015 ft | 239 kts | 258° |
| 2026-05-06 02:01 | 39.90523 | -83.02348 | 6016 ft | 240 kts | 258° |
| 2026-05-06 02:02 | 39.90348 | -83.04503 | 6032 ft | 239 kts | 258° |
| 2026-05-06 02:02 | 39.90175 | -83.06653 | 5966 ft | 240 kts | 257° |
| 2026-05-06 02:02 | 39.90005 | -83.08823 | 5670 ft | 240 kts | 258° |
| 2026-05-06 02:02 | 39.89838 | -83.10969 | 5384 ft | 237 kts | 258° |
| 2026-05-06 02:03 | 39.89677 | -83.13102 | 5088 ft | 237 kts | 262° |
| 2026-05-06 02:03 | 39.89987 | -83.15265 | 4733 ft | 254 kts | 286° |
| 2026-05-06 02:03 | 39.91075 | -83.17146 | 4401 ft | 270 kts | 313° |
| 2026-05-06 02:03 | 39.92773 | -83.18323 | 4082 ft | 286 kts | 339° |
| 2026-05-06 02:04 | 39.94772 | -83.18638 | 3764 ft | 294 kts | 354° |
| 2026-05-06 02:04 | 39.96800 | -83.18526 | 3430 ft | 288 kts | 0° |
| 2026-05-06 02:04 | 39.98714 | -83.18275 | 3131 ft | 267 kts | 2° |
| 2026-05-06 02:04 | 40.00449 | -83.17625 | 2989 ft | 257 kts | 31° |
| 2026-05-06 02:05 | 40.01696 | -83.16105 | 2976 ft | 236 kts | 62° |
| 2026-05-06 02:05 | 40.02141 | -83.14091 | 3314 ft | 238 kts | 98° |
| 2026-05-06 02:05 | 40.01928 | -83.11788 | 3441 ft | 252 kts | 109° |
| 2026-05-06 02:05 | 40.01506 | -83.09863 | 3817 ft | 215 kts | 117° |
| 2026-05-06 02:06 | 40.01067 | -83.07854 | 3404 ft | 222 kts | 116° |
| 2026-05-06 02:06 | 40.00597 | -83.05940 | 3125 ft | 225 kts | 116° |
| 2026-05-06 02:06 | 40.00324 | -83.03931 | 2604 ft | 226 kts | 97° |
| 2026-05-06 02:06 | 40.00464 | -83.01984 | 2599 ft | 205 kts | 94° |
| 2026-05-06 02:07 | 40.00516 | -83.00736 | 2440 ft | 204 kts | 97° |
| 2026-05-06 02:07 | 40.00548 | -82.98921 | 2340 ft | 204 kts | 99° |
| 2026-05-06 02:07 | 40.00267 | -82.97013 | 2612 ft | 221 kts | 125° |
| 2026-05-06 02:07 | 39.99257 | -82.95603 | 2940 ft | 213 kts | 157° |
| 2026-05-06 02:08 | 39.97878 | -82.95007 | 3064 ft | 207 kts | 175° |
| 2026-05-06 02:08 | 39.96472 | -82.94770 | 2981 ft | 200 kts | 181° |
| 2026-05-06 02:08 | 39.95096 | -82.94633 | 2951 ft | 198 kts | 182° |
| 2026-05-06 02:08 | 39.93731 | -82.94696 | 2935 ft | 195 kts | 198° |
| 2026-05-06 02:09 | 39.92630 | -82.95696 | 2942 ft | 199 kts | 228° |
| 2026-05-06 02:09 | 39.92161 | -82.97412 | 2969 ft | 208 kts | 256° |
| 2026-05-06 02:09 | 39.92233 | -82.99321 | 3016 ft | 213 kts | 268° |
| 2026-05-06 02:09 | 39.92477 | -83.01230 | 3030 ft | 214 kts | 271° |
| 2026-05-06 02:10 | 39.92770 | -83.03133 | 3023 ft | 214 kts | 273° |
| 2026-05-06 02:10 | 39.93069 | -83.05029 | 3020 ft | 213 kts | 273° |
| 2026-05-06 02:10 | 39.93367 | -83.06930 | 3020 ft | 215 kts | 273° |
| 2026-05-06 02:10 | 39.93665 | -83.08849 | 3019 ft | 217 kts | 273° |
| 2026-05-06 02:11 | 39.93962 | -83.10735 | 3012 ft | 204 kts | 273° |
| 2026-05-06 02:11 | 39.94267 | -83.12492 | 3019 ft | 198 kts | 276° |
| 2026-05-06 02:11 | 39.95072 | -83.14043 | 2970 ft | 221 kts | 310° |
| 2026-05-06 02:11 | 39.96535 | -83.14848 | 2993 ft | 239 kts | 343° |
| 2026-05-06 02:12 | 39.98208 | -83.14626 | 3017 ft | 249 kts | 17° |
| 2026-05-06 02:12 | 39.99626 | -83.13338 | 3029 ft | 251 kts | 48° |
| 2026-05-06 02:12 | 40.00630 | -83.11501 | 3038 ft | 245 kts | 71° |
| 2026-05-06 02:12 | 40.00858 | -83.09432 | 3024 ft | 215 kts | 107° |
| 2026-05-06 02:13 | 40.00450 | -83.07683 | 3064 ft | 199 kts | 118° |
| 2026-05-06 02:13 | 40.00189 | -83.05873 | 3009 ft | 208 kts | 107° |
| 2026-05-06 02:13 | 40.00106 | -83.04042 | 2782 ft | 193 kts | 104° |
| 2026-05-06 02:13 | 40.00028 | -83.02366 | 2542 ft | 178 kts | 104° |
| 2026-05-06 02:14 | 39.99932 | -83.00796 | 2352 ft | 172 kts | 105° |
| 2026-05-06 02:14 | 39.99842 | -82.99262 | 2132 ft | 168 kts | 104° |
| 2026-05-06 02:14 | 39.99755 | -82.97752 | 1903 ft | 165 kts | 104° |
| 2026-05-06 02:14 | 39.99670 | -82.96256 | 1688 ft | 165 kts | 101° |
| 2026-05-06 02:15 | 39.99575 | -82.94786 | 1430 ft | 160 kts | 99° |
| 2026-05-06 02:15 | 39.99508 | -82.93376 | 1225 ft | 154 kts | 97° |
| 2026-05-06 02:15 | 39.99430 | -82.91976 | 1024 ft | 156 kts | 96° |
| 2026-05-06 02:15 | 39.99351 | -82.90560 | 828 ft | 150 kts | 96° |
| 2026-05-06 02:16 | 39.99281 | -82.89415 | 822 ft | 101 kts | 95° |
| 2026-05-06 02:16 | 39.99240 | -82.88688 | 827 ft | 63 kts | 93° |
| 2026-05-06 02:16 | 39.99241 | -82.88227 | 827 ft | 43 kts | 79° |
| 2026-05-06 02:16 | 39.99314 | -82.87978 | 825 ft | 10 kts | 56° |
| 2026-05-06 02:17 | 39.99346 | -82.87897 | 830 ft | 11 kts | 64° |
| 2026-05-06 02:17 | 39.99387 | -82.87807 | 825 ft | 12 kts | 38° |
| 2026-05-06 02:17 | 39.99466 | -82.87784 | 827 ft | 12 kts | 7° |
| 2026-05-06 02:17 | 39.99546 | -82.87778 | 827 ft | 11 kts | 359° |
| 2026-05-06 02:18 | 39.99587 | -82.87838 | 827 ft | 9 kts | 276° |
| 2026-05-06 02:18 | 39.99612 | -82.87901 | 828 ft | 8 kts | 329° |
| 2026-05-06 02:18 | 39.99673 | -82.87908 | 828 ft | 10 kts | 359° |
| 2026-05-06 02:18 | 39.99759 | -82.87903 | 828 ft | 14 kts | 5° |
| 2026-05-06 02:19 | 39.99859 | -82.87891 | 828 ft | 14 kts | 4° |
| 2026-05-06 02:19 | 39.99946 | -82.87929 | 828 ft | 13 kts | 319° |
| 2026-05-06 02:19 | 39.99965 | -82.87980 | 830 ft | 5 kts | 278° |
| 2026-05-06 02:19 | 39.99968 | -82.88027 | 830 ft | 6 kts | 273° |
| 2026-05-06 02:20 | 39.99974 | -82.88152 | 830 ft | 8 kts | 272° |
| 2026-05-06 02:20 | 39.99955 | -82.88218 | 830 ft | 8 kts | 225° |
| 2026-05-06 02:20 | 39.99927 | -82.88277 | 824 ft | 8 kts | 250° |
| 2026-05-06 02:21 | 39.99919 | -82.88315 | 830 ft | 1 kts | 256° |
| 2026-05-06 02:21 | 39.99918 | -82.88320 | 830 ft | 0 kts | 256° |